Time;durP1;ratioP1;P1;durP2;ratioP2;P2;SDS_P1;SDS_P2;PMS_P1;PMS_P2;Temp;Humidity;BMP_temperature;BMP_pressure;BME280_temperature;BME280_humidity;BME280_pressure;Samples;Min_cycle;Max_cycle;Signal;HPM_P1;HPM_P2
2023/12/06 00:01:49;;;;;;;1.47;1.47;;;4.00;99.90;;;;;;5036157;28;20276;-84
2023/12/06 00:04:14;;;;;;;5.20;3.53;;;3.90;99.90;;;;;;5018967;28;20238;-84
2023/12/06 00:06:40;;;;;;;3.23;3.03;;;3.90;99.90;;;;;;5028291;28;20300;-84
2023/12/06 00:09:07;;;;;;;2.67;2.47;;;3.80;99.90;;;;;;5034299;28;20248;-83
2023/12/06 00:11:33;;;;;;;1.37;1.37;;;3.90;99.90;;;;;;5016843;28;20191;-83
2023/12/06 00:13:59;;;;;;;2.37;1.03;;;3.90;99.90;;;;;;5015954;28;20237;-84
2023/12/06 00:16:24;;;;;;;1.73;1.63;;;3.90;99.90;;;;;;5016036;28;20226;-84
2023/12/06 00:18:50;;;;;;;1.63;1.53;;;3.80;99.90;;;;;;5016367;28;20274;-84
2023/12/06 00:21:16;;;;;;;2.10;2.00;;;3.70;99.90;;;;;;5016069;28;20690;-84
2023/12/06 00:23:42;;;;;;;1.67;1.57;;;3.70;99.90;;;;;;5000455;28;20245;-84
2023/12/06 00:26:08;;;;;;;1.93;1.80;;;3.80;99.90;;;;;;4999696;28;20214;-84
2023/12/06 00:28:34;;;;;;;1.07;1.07;;;3.70;99.90;;;;;;4999343;28;20210;-84
2023/12/06 00:30:59;;;;;;;1.97;1.83;;;3.60;99.90;;;;;;4999650;28;20222;-85
2023/12/06 00:33:25;;;;;;;2.90;2.70;;;3.70;99.90;;;;;;5033686;28;20674;-84
2023/12/06 00:35:51;;;;;;;1.40;1.30;;;3.70;99.90;;;;;;5015459;28;20674;-84
2023/12/06 00:38:16;;;;;;;1.30;1.30;;;3.70;99.90;;;;;;5016103;28;20190;-84
2023/12/06 00:40:44;;;;;;;0.97;0.93;;;3.80;99.90;;;;;;4999557;28;20241;-84
2023/12/06 00:43:10;;;;;;;2.23;2.03;;;3.80;99.90;;;;;;4999558;28;20222;-84
2023/12/06 00:45:35;;;;;;;1.57;1.47;;;3.80;99.90;;;;;;4999212;28;20236;-84
2023/12/06 00:48:01;;;;;;;2.80;2.60;;;3.80;99.90;;;;;;5015818;28;20273;-84
2023/12/06 00:50:27;;;;;;;0.97;0.97;;;4.00;99.90;;;;;;5016071;28;20216;-83
2023/12/06 00:52:53;;;;;;;1.93;1.60;;;4.00;99.90;;;;;;4999227;28;20758;-84
2023/12/06 00:55:18;;;;;;;0.83;0.83;;;3.90;99.90;;;;;;5015539;28;20230;-84
2023/12/06 00:57:44;;;;;;;0.40;0.40;;;4.10;99.90;;;;;;5015406;28;20226;-83
2023/12/06 01:00:13;;;;;;;3.30;3.03;;;4.10;99.90;;;;;;4998811;28;20234;-83
2023/12/06 01:02:39;;;;;;;1.07;0.97;;;4.00;99.90;;;;;;5016538;28;20205;-84
2023/12/06 01:05:06;;;;;;;0.83;0.83;;;4.10;99.90;;;;;;5015152;28;20644;-84
2023/12/06 01:07:32;;;;;;;1.87;1.77;;;4.10;99.90;;;;;;5029252;28;20249;-84
2023/12/06 01:09:57;;;;;;;2.00;1.50;;;4.00;99.90;;;;;;5018940;28;20214;-84
2023/12/06 01:12:23;;;;;;;1.70;1.60;;;4.00;99.90;;;;;;5018621;28;20214;-84
2023/12/06 01:14:49;;;;;;;0.73;0.73;;;4.00;99.90;;;;;;5052107;28;20607;-85
2023/12/06 01:17:15;;;;;;;0.40;0.40;;;4.00;99.90;;;;;;5018966;28;20610;-85
2023/12/06 01:19:40;;;;;;;0.83;0.83;;;3.90;99.90;;;;;;5018090;28;20225;-84
2023/12/06 01:22:06;;;;;;;1.30;1.13;;;4.10;99.90;;;;;;5018165;28;20678;-85
2023/12/06 01:24:32;;;;;;;0.93;0.93;;;4.20;99.90;;;;;;5001725;28;20217;-84
2023/12/06 01:26:58;;;;;;;1.27;1.27;;;4.10;99.90;;;;;;5034344;28;20189;-85
2023/12/06 01:29:23;;;;;;;1.77;1.67;;;4.10;99.90;;;;;;5034929;28;20212;-84
2023/12/06 01:31:49;;;;;;;1.30;0.90;;;4.10;99.90;;;;;;5018486;28;20222;-84
2023/12/06 01:34:15;;;;;;;2.07;1.97;;;4.10;99.90;;;;;;5034554;28;20644;-85
2023/12/06 01:36:41;;;;;;;1.33;1.33;;;4.20;99.90;;;;;;5017907;28;20221;-84
2023/12/06 01:39:07;;;;;;;3.67;1.27;;;4.10;99.90;;;;;;5034397;28;20217;-83
2023/12/06 01:41:33;;;;;;;2.30;1.63;;;4.10;99.90;;;;;;5018324;28;20226;-84
2023/12/06 01:43:59;;;;;;;3.00;2.70;;;4.10;99.90;;;;;;5034329;28;20248;-83
2023/12/06 01:46:25;;;;;;;1.23;1.13;;;4.20;99.90;;;;;;5017596;28;20262;-84
2023/12/06 01:48:52;;;;;;;1.83;1.40;;;4.10;99.90;;;;;;5017753;28;20221;-84
2023/12/06 01:51:19;;;;;;;2.53;1.43;;;4.20;99.90;;;;;;5034048;28;20226;-84
2023/12/06 01:53:45;;;;;;;0.87;0.80;;;4.20;99.90;;;;;;5051804;28;20186;-85
2023/12/06 01:56:11;;;;;;;1.60;1.60;;;4.30;99.90;;;;;;5035388;28;20186;-85
2023/12/06 01:58:38;;;;;;;0.90;0.90;;;4.30;99.90;;;;;;5051926;28;20217;-84
2023/12/06 02:01:05;;;;;;;1.23;1.20;;;4.30;99.90;;;;;;5034061;28;20317;-84
2023/12/06 02:03:34;;;;;;;2.87;1.60;;;4.30;99.90;;;;;;5017612;28;20271;-84
2023/12/06 02:06:05;;;;;;;2.73;1.23;;;4.20;99.90;;;;;;5033910;28;20208;-83
2023/12/06 02:08:33;;;;;;;2.47;2.23;;;4.30;99.90;;;;;;5051095;28;20183;-83
2023/12/06 02:10:59;;;;;;;1.03;0.80;;;4.30;99.90;;;;;;5033656;28;20284;-83
2023/12/06 02:13:26;;;;;;;0.97;0.97;;;4.40;99.90;;;;;;5051916;28;20634;-85
2023/12/06 02:15:53;;;;;;;2.10;1.90;;;4.20;99.90;;;;;;5051772;28;20233;-84
2023/12/06 02:18:18;;;;;;;1.30;0.80;;;4.30;99.90;;;;;;5001066;28;20218;-84
2023/12/06 02:20:45;;;;;;;0.83;0.83;;;4.20;99.90;;;;;;5017272;28;20731;-84
2023/12/06 02:23:14;;;;;;;0.90;0.87;;;4.20;99.90;;;;;;5034474;28;20221;-85
2023/12/06 02:25:41;;;;;;;1.43;1.10;;;4.40;99.90;;;;;;5033227;28;20691;-84
2023/12/06 02:28:07;;;;;;;0.83;0.83;;;4.30;99.90;;;;;;5017676;28;20533;-84
2023/12/06 02:30:33;;;;;;;0.50;0.50;;;4.40;99.90;;;;;;5033563;28;20213;-84
2023/12/06 02:32:59;;;;;;;0.50;0.50;;;4.40;99.90;;;;;;5033704;28;20177;-85
2023/12/06 02:35:38;;;;;;;1.53;1.00;;;4.50;99.90;;;;;;5017553;28;20625;-84
2023/12/06 02:38:05;;;;;;;1.13;1.03;;;4.50;99.90;;;;;;5033717;28;20218;-84
2023/12/06 02:40:31;;;;;;;1.37;1.17;;;4.40;99.90;;;;;;5033886;28;20254;-84
2023/12/06 02:43:00;;;;;;;0.90;0.90;;;4.50;99.90;;;;;;5000565;28;20585;-84
2023/12/06 02:45:26;;;;;;;1.13;1.13;;;4.50;99.90;;;;;;5051417;28;20259;-84
2023/12/06 02:47:52;;;;;;;1.80;1.70;;;4.40;99.90;;;;;;5016832;28;20261;-84
2023/12/06 02:50:18;;;;;;;0.90;0.90;;;4.40;99.90;;;;;;5050364;28;20188;-84
2023/12/06 02:52:44;;;;;;;0.83;0.77;;;4.50;99.90;;;;;;5033533;28;20230;-83
2023/12/06 02:55:10;;;;;;;1.17;1.07;;;4.50;99.90;;;;;;5016945;28;20537;-84
2023/12/06 02:57:36;;;;;;;1.07;1.07;;;4.50;99.90;;;;;;5033403;28;20206;-83
2023/12/06 03:00:01;;;;;;;1.33;1.23;;;4.50;99.90;;;;;;5033293;28;20630;-84
2023/12/06 03:02:27;;;;;;;2.10;1.23;;;4.50;99.90;;;;;;5033997;28;20265;-83
2023/12/06 03:04:53;;;;;;;0.70;0.70;;;4.60;99.90;;;;;;5000801;28;20226;-84
2023/12/06 03:07:18;;;;;;;0.70;0.70;;;4.50;99.90;;;;;;5016778;28;20627;-84
2023/12/06 03:09:45;;;;;;;1.40;1.30;;;4.60;99.90;;;;;;5017272;28;20667;-83
2023/12/06 03:12:11;;;;;;;0.80;0.80;;;4.50;99.90;;;;;;5016572;28;20281;-84
2023/12/06 03:14:37;;;;;;;1.67;1.57;;;4.60;99.90;;;;;;5034001;28;20217;-84
2023/12/06 03:17:03;;;;;;;3.00;1.37;;;4.60;99.90;;;;;;5000743;28;20229;-83
2023/12/06 03:19:29;;;;;;;1.43;1.30;;;4.60;99.90;;;;;;5033489;28;20226;-83
2023/12/06 03:21:54;;;;;;;1.23;1.23;;;4.60;99.90;;;;;;5016906;28;20651;-84
2023/12/06 03:24:20;;;;;;;2.43;2.33;;;4.60;99.90;;;;;;5033248;28;20658;-84
2023/12/06 03:26:46;;;;;;;3.20;0.90;;;4.60;99.90;;;;;;5050472;28;20193;-85
2023/12/06 03:29:12;;;;;;;1.43;1.00;;;4.70;99.90;;;;;;5017444;28;20186;-83
2023/12/06 03:31:38;;;;;;;2.37;1.77;;;4.70;99.90;;;;;;5032979;28;20229;-84
2023/12/06 03:34:03;;;;;;;1.50;1.37;;;4.70;99.90;;;;;;5016485;28;20218;-84
2023/12/06 03:36:29;;;;;;;2.50;1.47;;;4.60;99.90;;;;;;5016874;28;20317;-84
2023/12/06 03:38:55;;;;;;;1.30;1.03;;;4.70;99.90;;;;;;5053265;28;20651;-84
2023/12/06 03:41:20;;;;;;;1.13;1.03;;;4.60;99.90;;;;;;5020877;28;20213;-84
2023/12/06 03:43:46;;;;;;;1.40;1.33;;;4.70;99.90;;;;;;5036875;28;20716;-84
2023/12/06 03:46:12;;;;;;;0.57;0.57;;;4.60;99.90;;;;;;5054247;28;20221;-83
2023/12/06 03:48:37;;;;;;;1.00;0.90;;;4.70;99.90;;;;;;5020079;28;20229;-84
2023/12/06 03:51:03;;;;;;;0.50;0.43;;;4.70;99.90;;;;;;5020268;28;20651;-84
2023/12/06 03:53:29;;;;;;;0.97;0.97;;;4.60;99.90;;;;;;5037719;28;20201;-84
2023/12/06 03:55:55;;;;;;;1.43;1.40;;;4.70;99.90;;;;;;5036339;28;20221;-85
2023/12/06 03:58:22;;;;;;;1.33;1.33;;;4.70;99.90;;;;;;5019745;28;20230;-83
2023/12/06 04:00:47;;;;;;;1.67;1.57;;;4.70;99.90;;;;;;5003868;28;20738;-84
2023/12/06 04:03:14;;;;;;;0.60;0.60;;;4.70;99.90;;;;;;5019939;28;20217;-82
2023/12/06 04:05:42;;;;;;;1.23;1.23;;;4.70;99.90;;;;;;5036820;28;20335;-81
2023/12/06 04:08:08;;;;;;;0.90;0.90;;;4.70;99.90;;;;;;5034383;28;20234;-82
2023/12/06 04:10:34;;;;;;;0.80;0.80;;;4.70;99.90;;;;;;5033961;28;20218;-80
2023/12/06 04:13:00;;;;;;;1.20;0.70;;;4.60;99.90;;;;;;5010699;28;20210;-82
2023/12/06 04:15:25;;;;;;;1.50;1.40;;;4.60;99.90;;;;;;5012491;28;20297;-81
2023/12/06 04:17:51;;;;;;;1.47;1.37;;;4.60;99.90;;;;;;5035681;28;20194;-81
2023/12/06 04:20:17;;;;;;;0.83;0.83;;;4.70;99.90;;;;;;5037113;28;20221;-82
2023/12/06 04:22:43;;;;;;;2.07;1.97;;;4.70;99.90;;;;;;5019483;28;20293;-82
2023/12/06 04:25:09;;;;;;;0.60;0.60;;;4.70;99.90;;;;;;5019383;28;20244;-80
2023/12/06 04:27:34;;;;;;;1.50;1.43;;;4.70;99.90;;;;;;5035746;28;20340;-81
2023/12/06 04:30:00;;;;;;;0.23;0.23;;;4.80;99.90;;;;;;5035810;28;20228;-81
2023/12/06 04:32:26;;;;;;;2.07;1.97;;;4.80;99.90;;;;;;5019616;28;20232;-82
2023/12/06 04:34:56;;;;;;;31.83;1.17;;;4.80;99.90;;;;;;5019091;28;20260;-82
2023/12/06 04:37:22;;;;;;;1.33;1.33;;;4.80;99.90;;;;;;5053342;28;20225;-82
2023/12/06 04:39:48;;;;;;;1.90;1.80;;;4.70;99.90;;;;;;5035784;28;20316;-81
2023/12/06 04:42:14;;;;;;;1.63;1.53;;;4.80;99.90;;;;;;5019104;28;20693;-82
2023/12/06 04:44:40;;;;;;;0.83;0.83;;;4.80;99.90;;;;;;5019168;28;20630;-82
2023/12/06 04:47:06;;;;;;;1.33;1.33;;;4.70;99.90;;;;;;5035662;28;20221;-84
2023/12/06 04:49:32;;;;;;;1.43;1.33;;;4.80;99.90;;;;;;5035379;28;20244;-82
2023/12/06 04:52:00;;;;;;;0.80;0.80;;;4.80;99.90;;;;;;5018987;28;20221;-83
2023/12/06 04:54:26;;;;;;;1.20;1.10;;;4.80;99.90;;;;;;5053140;28;20679;-84
2023/12/06 04:56:52;;;;;;;0.93;0.93;;;4.80;99.90;;;;;;5034969;28;20166;-84
2023/12/06 04:59:18;;;;;;;0.47;0.47;;;4.70;99.90;;;;;;5035596;28;20253;-84
2023/12/06 05:01:44;;;;;;;0.40;0.40;;;4.80;99.90;;;;;;5035016;28;20236;-83
2023/12/06 05:04:10;;;;;;;2.80;2.60;;;4.80;99.90;;;;;;5053346;28;20727;-83
2023/12/06 05:06:36;;;;;;;0.90;0.90;;;4.80;99.90;;;;;;5052323;28;20265;-83
2023/12/06 05:09:04;;;;;;;1.40;1.40;;;4.80;99.90;;;;;;5052616;28;20514;-84
2023/12/06 05:11:30;;;;;;;2.30;1.23;;;4.70;99.90;;;;;;5035342;28;20178;-84
2023/12/06 05:13:56;;;;;;;0.90;0.90;;;4.80;99.90;;;;;;5001963;28;20225;-84
2023/12/06 05:16:22;;;;;;;0.60;0.60;;;4.80;99.90;;;;;;5021684;28;20215;-83
2023/12/06 05:18:48;;;;;;;0.97;0.90;;;4.80;99.90;;;;;;4998646;28;20615;-84
2023/12/06 05:21:13;;;;;;;1.57;1.47;;;4.80;99.90;;;;;;4982451;28;20238;-83
2023/12/06 05:23:39;;;;;;;0.83;0.83;;;4.80;99.90;;;;;;4998876;28;20615;-84
2023/12/06 05:26:05;;;;;;;2.83;2.63;;;4.80;99.90;;;;;;5052173;28;20225;-83
2023/12/06 05:28:31;;;;;;;0.90;0.90;;;4.80;99.90;;;;;;5052498;28;20224;-84
2023/12/06 05:30:57;;;;;;;2.50;2.33;;;4.70;99.90;;;;;;5002085;28;20775;-84
2023/12/06 05:33:22;;;;;;;1.73;1.63;;;4.70;99.90;;;;;;5052220;28;20228;-84
2023/12/06 05:35:48;;;;;;;2.00;2.00;;;4.70;99.90;;;;;;5002243;28;20548;-85
2023/12/06 05:38:14;;;;;;;1.60;0.73;;;4.80;99.90;;;;;;5018343;28;20559;-83
2023/12/06 05:40:40;;;;;;;1.60;1.37;;;4.80;99.90;;;;;;5018135;28;20229;-84
2023/12/06 05:43:05;;;;;;;2.00;1.90;;;4.80;99.90;;;;;;5035142;28;20222;-84
2023/12/06 05:45:31;;;;;;;1.07;1.07;;;4.80;99.90;;;;;;5034319;28;20241;-84
2023/12/06 05:47:57;;;;;;;1.47;1.37;;;4.90;99.90;;;;;;5018182;28;20182;-84
2023/12/06 05:50:22;;;;;;;0.67;0.67;;;4.90;99.90;;;;;;5034607;28;20292;-84
2023/12/06 05:52:49;;;;;;;1.33;1.23;;;4.90;99.90;;;;;;5017542;28;20221;-83
2023/12/06 05:55:16;;;;;;;1.37;1.27;;;4.90;99.90;;;;;;5034558;28;20221;-84
2023/12/06 05:57:42;;;;;;;2.40;1.50;;;4.90;99.90;;;;;;5052152;28;20214;-83
2023/12/06 06:00:12;;;;;;;0.90;0.70;;;4.90;99.90;;;;;;5033284;28;20526;-83
2023/12/06 06:02:44;;;;;;;0.87;0.87;;;4.90;99.90;;;;;;5018474;28;20612;-84
2023/12/06 06:05:11;;;;;;;1.90;1.43;;;4.90;99.90;;;;;;5052145;28;20289;-84
2023/12/06 06:07:37;;;;;;;3.67;1.67;;;5.00;99.90;;;;;;5018189;28;20663;-83
2023/12/06 06:10:03;;;;;;;1.33;1.33;;;5.00;99.90;;;;;;5031812;28;20227;-84
2023/12/06 06:12:29;;;;;;;0.70;0.70;;;5.00;99.90;;;;;;4998049;28;20218;-84
2023/12/06 06:14:55;;;;;;;0.33;0.33;;;5.00;99.90;;;;;;4999244;28;20179;-85
2023/12/06 06:17:22;;;;;;;1.60;1.17;;;5.00;99.90;;;;;;5001860;28;20182;-84
2023/12/06 06:19:48;;;;;;;0.80;0.80;;;5.00;99.90;;;;;;5034286;28;20229;-84
2023/12/06 06:22:14;;;;;;;1.13;1.13;;;5.10;99.90;;;;;;5033620;28;20288;-84
2023/12/06 06:24:39;;;;;;;5.00;3.00;;;5.10;99.90;;;;;;5033625;28;20222;-83
2023/12/06 06:27:05;;;;;;;0.37;0.37;;;5.20;99.90;;;;;;5033645;28;20588;-83
2023/12/06 06:29:31;;;;;;;0.70;0.70;;;5.30;99.90;;;;;;5051835;28;20638;-84
2023/12/06 06:32:00;;;;;;;0.43;0.43;;;5.30;99.90;;;;;;5000680;28;20676;-84
2023/12/06 06:34:25;;;;;;;0.70;0.70;;;5.30;99.90;;;;;;5033391;28;20268;-84
2023/12/06 06:36:51;;;;;;;1.83;1.73;;;5.30;99.90;;;;;;5017094;28;20233;-83
2023/12/06 06:39:17;;;;;;;1.03;0.67;;;5.20;99.90;;;;;;5034360;28;20221;-83
2023/12/06 06:41:46;;;;;;;2.80;2.37;;;5.20;99.90;;;;;;5033095;28;20301;-84
2023/12/06 06:44:12;;;;;;;1.90;1.13;;;5.20;99.90;;;;;;5001469;28;20343;-84
2023/12/06 06:46:38;;;;;;;3.63;1.37;;;5.20;99.90;;;;;;5017617;28;20218;-84
2023/12/06 06:49:03;;;;;;;0.77;0.73;;;5.20;99.90;;;;;;5017182;28;20253;-84
2023/12/06 06:51:36;;;;;;;1.53;1.53;;;5.20;99.90;;;;;;5033131;28;20689;-84
2023/12/06 06:54:09;;;;;;;2.20;2.00;;;5.20;99.90;;;;;;5017154;28;20171;-83
2023/12/06 06:56:35;;;;;;;0.90;0.90;;;5.20;99.90;;;;;;5033716;28;20622;-81
2023/12/06 06:59:00;;;;;;;2.13;2.03;;;5.30;99.90;;;;;;5017446;28;20221;-82
2023/12/06 07:01:27;;;;;;;2.03;1.43;;;5.40;99.90;;;;;;5033478;28;20261;-81
2023/12/06 07:03:53;;;;;;;0.70;0.70;;;5.30;99.90;;;;;;5000972;28;20316;-82
2023/12/06 07:06:20;;;;;;;0.83;0.83;;;5.20;99.90;;;;;;5029143;28;20236;-81
2023/12/06 07:08:46;;;;;;;0.60;0.60;;;5.20;99.90;;;;;;4981341;28;20178;-83
2023/12/06 07:11:12;;;;;;;2.20;2.10;;;5.10;99.90;;;;;;5013747;28;20189;-83
2023/12/06 07:13:38;;;;;;;0.43;0.43;;;5.10;99.90;;;;;;5033957;28;20215;-82
2023/12/06 07:16:04;;;;;;;0.50;0.50;;;5.10;99.90;;;;;;5017434;28;20273;-83
2023/12/06 07:18:32;;;;;;;0.30;0.30;;;5.20;99.90;;;;;;5017815;28;20612;-81
2023/12/06 07:20:59;;;;;;;3.13;1.43;;;5.10;99.90;;;;;;5017427;28;20289;-81
2023/12/06 07:23:24;;;;;;;4.80;4.50;;;5.10;99.90;;;;;;5017428;28;20175;-82
2023/12/06 07:25:51;;;;;;;0.63;0.63;;;5.10;99.90;;;;;;5017531;28;20222;-81
2023/12/06 07:28:18;;;;;;;1.50;1.47;;;5.10;99.90;;;;;;5033796;28;20285;-81
2023/12/06 07:30:43;;;;;;;1.90;0.67;;;5.00;99.90;;;;;;5033652;28;20305;-81
2023/12/06 07:33:09;;;;;;;25.20;2.30;;;5.10;99.90;;;;;;5016687;28;20268;-84
2023/12/06 07:35:35;;;;;;;1.33;1.13;;;5.10;99.90;;;;;;5017778;28;20175;-84
2023/12/06 07:38:02;;;;;;;1.03;1.03;;;5.00;99.90;;;;;;5016654;28;20243;-82
2023/12/06 07:40:29;;;;;;;1.00;0.90;;;5.00;99.90;;;;;;5033217;28;20658;-83
2023/12/06 07:42:54;;;;;;;1.17;0.90;;;5.00;99.90;;;;;;5033305;28;20268;-82
2023/12/06 07:45:21;;;;;;;19.73;2.27;;;5.10;99.90;;;;;;5033539;28;20602;-83
2023/12/06 07:47:47;;;;;;;1.77;1.67;;;5.00;99.90;;;;;;5032609;28;20209;-81
2023/12/06 07:50:13;;;;;;;0.47;0.47;;;5.10;99.90;;;;;;5017168;28;20183;-83
2023/12/06 07:52:39;;;;;;;0.93;0.93;;;5.10;99.90;;;;;;5033697;28;20320;-81
2023/12/06 07:55:06;;;;;;;1.10;1.03;;;5.00;99.90;;;;;;5016633;28;20302;-81
2023/12/06 07:57:36;;;;;;;0.60;0.60;;;5.10;99.90;;;;;;5032590;28;20601;-82
2023/12/06 08:00:04;;;;;;;1.57;1.47;;;5.10;99.90;;;;;;5033224;28;20215;-81
2023/12/06 08:02:32;;;;;;;0.97;0.97;;;5.00;99.90;;;;;;5033039;28;20610;-81
2023/12/06 08:04:58;;;;;;;1.77;1.67;;;5.00;99.90;;;;;;5016255;28;20222;-83
2023/12/06 08:07:24;;;;;;;1.03;0.63;;;5.10;99.90;;;;;;5016155;28;20746;-82
2023/12/06 08:09:52;;;;;;;0.60;0.60;;;5.10;99.90;;;;;;5032631;28;20234;-82
2023/12/06 08:12:18;;;;;;;2.87;1.27;;;5.00;99.90;;;;;;5000064;28;20764;-81
2023/12/06 08:14:44;;;;;;;0.20;0.20;;;5.00;99.90;;;;;;5016036;28;20300;-82
2023/12/06 08:17:09;;;;;;;0.83;0.70;;;4.90;99.90;;;;;;5000359;28;20653;-81
2023/12/06 08:19:35;;;;;;;1.67;1.53;;;5.00;99.90;;;;;;5016242;28;20218;-82
2023/12/06 08:22:01;;;;;;;0.53;0.53;;;5.00;99.90;;;;;;5048478;28;20233;-82
2023/12/06 08:24:26;;;;;;;0.50;0.50;;;5.00;99.90;;;;;;5031859;28;20635;-82
2023/12/06 08:26:52;;;;;;;1.07;0.83;;;5.10;99.90;;;;;;5015728;28;20654;-83
2023/12/06 08:29:18;;;;;;;0.87;0.87;;;5.10;99.90;;;;;;5016587;28;20264;-83
2023/12/06 08:31:44;;;;;;;0.70;0.70;;;5.10;99.90;;;;;;5032478;28;20222;-82
2023/12/06 08:34:09;;;;;;;1.50;1.50;;;5.20;99.90;;;;;;5015736;28;20218;-83
2023/12/06 08:36:35;;;;;;;0.60;0.60;;;5.10;99.90;;;;;;5015541;28;20206;-83
2023/12/06 08:39:01;;;;;;;1.70;1.60;;;5.10;99.90;;;;;;5032407;28;20642;-81
2023/12/06 08:41:26;;;;;;;0.97;0.97;;;5.10;99.90;;;;;;5015957;28;20233;-82
2023/12/06 08:43:52;;;;;;;3.30;3.10;;;5.10;99.90;;;;;;5015753;28;20234;-80
2023/12/06 08:46:19;;;;;;;3.07;1.60;;;5.00;99.90;;;;;;5016186;28;20218;-81
2023/12/06 08:48:44;;;;;;;0.63;0.63;;;5.00;99.90;;;;;;5032123;28;20246;-81
2023/12/06 08:51:10;;;;;;;6.93;2.83;;;5.10;99.90;;;;;;5031830;28;20577;-82
2023/12/06 08:53:36;;;;;;;0.93;0.93;;;5.10;99.90;;;;;;5032442;28;20239;-83
2023/12/06 08:56:05;;;;;;;1.20;1.20;;;5.10;99.90;;;;;;5015099;28;20226;-83
2023/12/06 08:58:31;;;;;;;0.47;0.47;;;5.10;99.90;;;;;;5033088;28;20230;-81
2023/12/06 09:00:57;;;;;;;0.90;0.90;;;5.10;99.90;;;;;;4999032;28;20233;-81
2023/12/06 09:03:22;;;;;;;0.60;0.60;;;5.10;99.90;;;;;;4999059;28;20376;-83
2023/12/06 09:05:48;;;;;;;1.57;0.93;;;5.00;99.90;;;;;;5015075;28;20767;-81
2023/12/06 09:08:15;;;;;;;2.83;1.23;;;5.10;99.90;;;;;;4998940;28;20237;-82
2023/12/06 09:10:41;;;;;;;0.83;0.43;;;5.20;99.90;;;;;;5031483;28;20268;-81
2023/12/06 09:13:07;;;;;;;0.70;0.70;;;5.20;99.90;;;;;;5031431;28;20274;-81
2023/12/06 09:15:33;;;;;;;5.30;1.57;;;5.30;99.90;;;;;;5015159;28;20595;-87
2023/12/06 09:17:59;;;;;;;0.77;0.70;;;5.40;99.90;;;;;;5031849;28;20182;-87
2023/12/06 09:20:24;;;;;;;0.97;0.97;;;5.30;99.90;;;;;;4999681;28;20275;-85
2023/12/06 09:22:50;;;;;;;1.17;1.17;;;5.40;99.90;;;;;;5032658;28;20702;-86
2023/12/06 09:25:16;;;;;;;0.87;0.87;;;5.40;99.90;;;;;;5032916;28;20222;-87
2023/12/06 09:27:43;;;;;;;6.93;3.20;;;5.40;99.90;;;;;;5015167;28;20243;-86
2023/12/06 09:30:09;;;;;;;0.33;0.33;;;5.50;99.90;;;;;;5031590;28;20215;-86
2023/12/06 09:32:35;;;;;;;0.33;0.33;;;5.50;99.90;;;;;;5033168;28;20178;-85
2023/12/06 09:35:03;;;;;;;2.30;1.00;;;5.50;99.90;;;;;;5031865;28;20228;-88
2023/12/06 09:37:29;;;;;;;0.70;0.70;;;5.50;99.90;;;;;;5031606;28;20592;-85
2023/12/06 09:39:54;;;;;;;1.50;1.37;;;5.50;99.90;;;;;;4998044;28;20658;-85
2023/12/06 09:42:22;;;;;;;1.00;0.90;;;5.50;99.90;;;;;;5030821;28;20222;-87
2023/12/06 09:44:49;;;;;;;0.60;0.60;;;5.60;99.90;;;;;;5031329;28;20178;-84
2023/12/06 09:47:15;;;;;;;1.10;0.97;;;5.60;99.90;;;;;;5015394;28;20183;-85
2023/12/06 09:49:42;;;;;;;1.03;1.03;;;5.70;99.90;;;;;;5014390;28;20229;-84
2023/12/06 09:52:12;;;;;;;1.60;1.23;;;5.70;99.90;;;;;;5030968;28;20570;-84
2023/12/06 09:54:43;;;;;;;1.13;1.13;;;5.70;99.90;;;;;;5030923;28;20630;-85
2023/12/06 09:57:10;;;;;;;1.80;1.77;;;5.70;99.90;;;;;;5014424;28;20558;-84
2023/12/06 09:59:36;;;;;;;0.80;0.80;;;5.70;99.90;;;;;;5015436;28;20278;-85
2023/12/06 10:02:02;;;;;;;0.80;0.80;;;5.70;99.90;;;;;;5030691;28;20744;-84
2023/12/06 10:04:28;;;;;;;1.50;1.47;;;5.70;99.90;;;;;;5031009;28;20300;-85
2023/12/06 10:06:54;;;;;;;3.13;1.60;;;5.70;99.90;;;;;;5030461;28;20334;-85
2023/12/06 10:09:20;;;;;;;1.17;1.17;;;5.80;99.90;;;;;;5014557;28;20668;-86
2023/12/06 10:11:47;;;;;;;1.17;1.10;;;5.80;99.90;;;;;;4997890;28;20269;-82
2023/12/06 10:14:20;;;;;;;1.30;1.20;;;5.80;99.90;;;;;;5014392;28;20183;-82
2023/12/06 10:16:47;;;;;;;1.50;1.40;;;5.70;99.90;;;;;;5030501;28;20705;-82
2023/12/06 10:19:21;;;;;;;1.00;0.97;;;5.70;99.90;;;;;;5014316;28;20221;-83
2023/12/06 10:21:50;;;;;;;2.20;1.27;;;5.70;99.90;;;;;;5015092;28;20310;-81
2023/12/06 10:24:16;;;;;;;1.67;1.57;;;5.60;99.90;;;;;;5030457;28;20210;-82
2023/12/06 10:26:42;;;;;;;1.23;1.23;;;5.70;99.90;;;;;;5030898;28;20181;-80
2023/12/06 10:29:08;;;;;;;1.47;1.27;;;5.60;99.90;;;;;;5030651;28;20238;-83
2023/12/06 10:31:38;;;;;;;4.00;2.60;;;5.60;99.90;;;;;;5030833;28;20280;-83
2023/12/06 10:34:06;;;;;;;0.77;0.77;;;5.70;99.90;;;;;;5013649;28;20232;-82
2023/12/06 10:36:32;;;;;;;7.30;1.47;;;5.70;99.90;;;;;;5030121;28;20341;-82
2023/12/06 10:38:59;;;;;;;1.83;0.97;;;5.70;99.90;;;;;;5013972;28;20175;-83
2023/12/06 10:41:31;;;;;;;1.03;1.03;;;5.60;99.90;;;;;;5014495;28;20213;-82
2023/12/06 10:43:59;;;;;;;2.10;2.00;;;5.70;99.90;;;;;;5031833;28;20210;-84
2023/12/06 10:46:26;;;;;;;7.43;1.27;;;5.70;99.90;;;;;;5030599;28;20223;-81
2023/12/06 10:48:53;;;;;;;1.33;1.33;;;5.70;99.90;;;;;;5034137;28;20217;-85
2023/12/06 10:51:20;;;;;;;1.23;0.90;;;5.70;99.90;;;;;;5033928;28;20384;-85
2023/12/06 10:53:47;;;;;;;1.30;1.00;;;5.70;99.90;;;;;;5017919;28;20186;-85
2023/12/06 10:56:15;;;;;;;10.23;2.77;;;5.70;99.90;;;;;;5018216;28;20178;-84
2023/12/06 10:58:41;;;;;;;1.50;1.00;;;5.60;99.90;;;;;;5017528;28;20218;-85
2023/12/06 11:01:09;;;;;;;0.30;0.30;;;5.60;99.90;;;;;;4985169;28;20226;-84
2023/12/06 11:03:35;;;;;;;0.47;0.47;;;5.30;99.90;;;;;;5017492;28;20211;-84
2023/12/06 11:06:12;;;;;;;0.67;0.67;;;5.30;99.90;;;;;;5016947;28;20177;-86
2023/12/06 11:08:50;;;;;;;0.77;0.77;;;5.30;99.90;;;;;;4998355;28;20202;-86
2023/12/06 11:11:49;;;;;;;2.43;1.57;;;5.40;99.90;;;;;;5018270;28;20199;-84
2023/12/06 11:14:22;;;;;;;0.57;0.57;;;5.50;99.90;;;;;;5017722;28;20290;-85
2023/12/06 11:17:06;;;;;;;0.70;0.70;;;5.60;99.90;;;;;;5035696;28;20253;-85
2023/12/06 11:19:34;;;;;;;0.67;0.67;;;5.60;99.90;;;;;;5017266;28;20218;-87
2023/12/06 11:22:02;;;;;;;0.67;0.67;;;5.60;99.90;;;;;;5016866;28;20238;-85
2023/12/06 11:24:28;;;;;;;1.17;1.07;;;5.60;99.90;;;;;;5034821;28;20219;-85
2023/12/06 11:26:55;;;;;;;0.40;0.40;;;5.50;99.90;;;;;;5017375;28;20633;-85
2023/12/06 11:29:23;;;;;;;1.30;1.20;;;5.50;99.90;;;;;;5001166;28;20179;-85
2023/12/06 11:31:56;;;;;;;0.73;0.73;;;5.50;99.90;;;;;;5017231;28;20230;-85
2023/12/06 11:34:33;;;;;;;0.37;0.37;;;5.50;99.90;;;;;;5017504;28;20558;-85
2023/12/06 11:37:03;;;;;;;0.53;0.53;;;5.50;99.90;;;;;;5016971;28;20214;-85
2023/12/06 11:39:29;;;;;;;0.67;0.67;;;5.60;99.90;;;;;;5001403;28;20269;-85
2023/12/06 11:41:56;;;;;;;2.00;1.10;;;5.60;99.90;;;;;;5016767;28;20234;-84
2023/12/06 11:44:22;;;;;;;1.90;1.87;;;5.60;99.90;;;;;;5034912;28;20614;-85
2023/12/06 11:46:52;;;;;;;1.23;1.23;;;5.60;99.90;;;;;;5034820;28;20234;-86
2023/12/06 11:49:26;;;;;;;1.53;1.43;;;5.70;99.90;;;;;;5034480;28;20219;-86
2023/12/06 11:52:02;;;;;;;0.87;0.87;;;5.70;99.90;;;;;;5016740;28;20278;-85
2023/12/06 11:54:34;;;;;;;1.30;1.17;;;5.60;99.90;;;;;;5000764;28;20592;-85
2023/12/06 11:57:10;;;;;;;1.10;1.07;;;5.70;99.90;;;;;;5000404;28;20634;-85
2023/12/06 11:59:36;;;;;;;1.00;1.00;;;5.70;99.90;;;;;;4983583;28;20206;-84
2023/12/06 12:02:03;;;;;;;0.40;0.40;;;5.70;99.90;;;;;;4983707;28;20230;-87
2023/12/06 12:04:30;;;;;;;0.70;0.70;;;5.70;99.90;;;;;;5017012;28;20222;-85
2023/12/06 12:07:00;;;;;;;0.93;0.93;;;5.80;99.90;;;;;;5021235;28;20299;-86
2023/12/06 12:09:26;;;;;;;0.50;0.50;;;5.80;99.90;;;;;;5030429;28;20257;-86
2023/12/06 12:11:52;;;;;;;0.40;0.40;;;5.80;99.90;;;;;;5016252;28;20179;-84
2023/12/06 12:14:18;;;;;;;0.30;0.30;;;5.90;99.90;;;;;;5016595;28;20260;-87
2023/12/06 12:16:44;;;;;;;1.40;1.10;;;5.90;99.90;;;;;;5016422;28;20639;-84
2023/12/06 12:19:11;;;;;;;1.63;1.53;;;5.90;99.90;;;;;;5034086;28;20215;-85
2023/12/06 12:21:37;;;;;;;0.90;0.90;;;6.00;99.90;;;;;;5040249;28;20309;-85
2023/12/06 12:24:03;;;;;;;1.20;1.20;;;5.90;99.90;;;;;;5032856;28;20567;-84
2023/12/06 12:26:30;;;;;;;2.73;1.67;;;5.90;99.90;;;;;;5016316;28;20179;-84
2023/12/06 12:28:56;;;;;;;1.30;1.20;;;5.90;99.90;;;;;;5050410;28;20214;-83
2023/12/06 12:31:28;;;;;;;1.17;0.77;;;5.80;99.90;;;;;;5035832;28;20249;-85
2023/12/06 12:33:55;;;;;;;0.50;0.50;;;5.90;99.90;;;;;;5043646;28;20219;-82
2023/12/06 12:36:21;;;;;;;1.50;1.20;;;5.80;99.90;;;;;;5020623;28;20210;-82
2023/12/06 12:38:47;;;;;;;0.73;0.73;;;5.80;99.90;;;;;;5018250;28;20185;-83
2023/12/06 12:41:14;;;;;;;0.97;0.90;;;5.80;99.90;;;;;;5033383;28;20211;-83
2023/12/06 12:43:40;;;;;;;1.03;1.03;;;5.80;99.90;;;;;;5048143;28;20229;-83
2023/12/06 12:46:05;;;;;;;0.80;0.80;;;5.80;99.90;;;;;;5041862;28;20226;-84
2023/12/06 12:48:33;;;;;;;1.00;0.50;;;5.80;99.90;;;;;;5022308;28;20210;-84
2023/12/06 12:51:12;;;;;;;0.40;0.40;;;5.80;99.90;;;;;;5016928;28;20205;-85
2023/12/06 12:53:45;;;;;;;1.60;1.50;;;5.90;99.90;;;;;;5032344;28;20680;-84
2023/12/06 12:56:17;;;;;;;0.20;0.20;;;5.90;99.90;;;;;;5036046;28;20255;-83